Time;durP1;ratioP1;P1;durP2;ratioP2;P2;SDS_P1;SDS_P2;PMS_P1;PMS_P2;Temp;Humidity;BMP_temperature;BMP_pressure;BME280_temperature;BME280_humidity;BME280_pressure;Samples;Min_cycle;Max_cycle;Signal;HPM_P1;HPM_P2
2023/06/27 00:01:52;;;;;;;1.23;0.28;;;15.20;99.90;;;;;;4983915;28;20056;-77
2023/06/27 00:04:19;;;;;;;1.25;0.30;;;15.20;99.90;;;;;;4995469;28;20046;-77
2023/06/27 00:06:46;;;;;;;1.48;0.32;;;15.10;99.90;;;;;;4979865;28;20026;-78
2023/06/27 00:09:11;;;;;;;1.05;0.40;;;15.10;99.90;;;;;;4981939;28;20481;-77
2023/06/27 00:11:38;;;;;;;0.65;0.30;;;15.10;99.90;;;;;;4988017;28;20023;-77
2023/06/27 00:14:08;;;;;;;1.52;0.35;;;15.10;99.90;;;;;;4984221;28;20026;-78
2023/06/27 00:16:35;;;;;;;0.90;0.30;;;15.10;99.90;;;;;;4986399;28;20022;-78
2023/06/27 00:19:04;;;;;;;1.98;0.40;;;15.10;99.90;;;;;;4970403;28;20061;-77
2023/06/27 00:21:33;;;;;;;1.25;0.40;;;15.00;99.90;;;;;;4986489;28;20102;-78
2023/06/27 00:24:00;;;;;;;1.38;0.30;;;15.00;99.90;;;;;;4980406;28;20059;-78
2023/06/27 00:26:27;;;;;;;1.98;0.40;;;15.00;99.90;;;;;;4982827;28;20101;-79
2023/06/27 00:28:54;;;;;;;1.10;0.40;;;15.20;99.90;;;;;;5003140;28;20121;-78
2023/06/27 00:31:19;;;;;;;1.85;0.30;;;15.10;99.90;;;;;;4998581;28;20037;-78
2023/06/27 00:33:46;;;;;;;1.48;0.30;;;15.10;99.90;;;;;;5010169;28;20117;-80
2023/06/27 00:36:14;;;;;;;1.35;0.35;;;15.20;99.90;;;;;;4973119;28;20118;-77
2023/06/27 00:38:39;;;;;;;1.75;0.50;;;15.20;99.90;;;;;;4991965;28;20083;-77
2023/06/27 00:41:05;;;;;;;1.10;0.40;;;15.10;99.90;;;;;;5011386;28;20022;-80
2023/06/27 00:43:33;;;;;;;1.05;0.30;;;15.20;99.90;;;;;;5009194;28;20073;-79
2023/06/27 00:46:02;;;;;;;1.20;0.40;;;15.20;99.90;;;;;;4989187;28;20030;-77
2023/06/27 00:48:27;;;;;;;2.53;0.40;;;15.20;99.90;;;;;;4988225;28;20057;-80
2023/06/27 00:50:56;;;;;;;0.93;0.30;;;15.20;99.90;;;;;;4971195;28;20129;-80
2023/06/27 00:53:22;;;;;;;2.83;0.40;;;15.20;99.90;;;;;;4974648;28;20055;-76
2023/06/27 00:55:48;;;;;;;0.90;0.30;;;15.30;99.90;;;;;;4994039;28;20285;-77
2023/06/27 00:58:14;;;;;;;1.10;0.40;;;15.30;99.90;;;;;;5010652;28;20446;-81
2023/06/27 01:00:39;;;;;;;1.73;0.40;;;15.40;99.90;;;;;;4976078;28;20394;-82
2023/06/27 01:03:07;;;;;;;1.10;0.40;;;15.30;99.90;;;;;;5002866;28;20026;-77
2023/06/27 01:05:34;;;;;;;1.20;0.40;;;15.40;99.90;;;;;;4984969;28;20368;-77
2023/06/27 01:08:32;;;;;;;1.67;0.40;;;15.40;99.90;;;;;;4992230;28;20058;-81
2023/06/27 01:11:24;;;;;;;2.65;0.50;;;15.40;99.90;;;;;;4970229;28;20034;-81
2023/06/27 01:13:56;;;;;;;0.98;0.40;;;15.40;99.90;;;;;;4970610;28;20027;-81
2023/06/27 01:16:25;;;;;;;1.60;0.40;;;15.50;99.90;;;;;;4989199;28;20045;-83
2023/06/27 01:18:51;;;;;;;1.45;0.40;;;15.50;99.90;;;;;;4986660;28;20031;-77
2023/06/27 01:21:19;;;;;;;1.38;0.40;;;15.50;99.90;;;;;;5007747;28;20043;-77
2023/06/27 01:23:55;;;;;;;2.83;0.40;;;15.50;99.90;;;;;;5005702;28;20104;-81
2023/06/27 01:26:21;;;;;;;1.40;0.50;;;15.50;99.90;;;;;;5009384;28;20400;-77
2023/06/27 01:28:47;;;;;;;1.23;0.40;;;15.50;99.90;;;;;;4991115;28;20537;-79
2023/06/27 01:31:47;;;;;;;1.48;0.50;;;15.60;99.90;;;;;;4991560;28;20105;-79
2023/06/27 01:34:33;;;;;;;2.13;0.50;;;15.60;99.90;;;;;;5007122;28;20080;-78
2023/06/27 01:37:17;;;;;;;2.10;0.50;;;15.70;99.90;;;;;;4985875;28;20562;-78
2023/06/27 01:39:47;;;;;;;1.63;0.50;;;15.60;99.90;;;;;;5000889;28;20022;-77
2023/06/27 01:42:18;;;;;;;1.50;0.55;;;15.70;99.90;;;;;;5000316;28;20023;-77
2023/06/27 01:44:49;;;;;;;1.85;0.40;;;15.70;99.90;;;;;;4998991;28;20084;-78
2023/06/27 01:47:16;;;;;;;2.38;0.60;;;15.70;99.90;;;;;;5000104;28;20035;-77
2023/06/27 01:49:42;;;;;;;2.17;0.70;;;15.70;99.90;;;;;;4988919;28;20037;-78
2023/06/27 01:52:14;;;;;;;4.22;1.27;;;15.80;99.90;;;;;;5005159;28;20022;-78
2023/06/27 01:54:41;;;;;;;2.72;0.95;;;15.70;99.90;;;;;;4996161;28;20030;-77
2023/06/27 01:57:07;;;;;;;4.63;1.00;;;15.70;99.90;;;;;;4990015;28;20019;-77
2023/06/27 01:59:33;;;;;;;3.83;1.40;;;15.70;99.90;;;;;;5016403;28;20475;-81
2023/06/27 02:01:58;;;;;;;2.72;1.10;;;15.70;99.90;;;;;;4988073;28;20042;-78
2023/06/27 02:04:24;;;;;;;3.80;1.27;;;15.70;99.90;;;;;;4987319;28;20045;-76
2023/06/27 02:06:50;;;;;;;3.83;1.60;;;15.70;99.90;;;;;;4989939;28;20060;-77
2023/06/27 02:09:15;;;;;;;4.45;1.45;;;15.70;99.90;;;;;;4984860;28;20030;-78
2023/06/27 02:11:42;;;;;;;4.75;1.88;;;15.70;99.90;;;;;;4969489;28;20033;-76
2023/06/27 02:14:07;;;;;;;4.55;1.55;;;15.70;99.90;;;;;;4972044;28;20026;-78
2023/06/27 02:16:33;;;;;;;5.43;1.80;;;15.60;99.90;;;;;;4984882;28;20026;-78
2023/06/27 02:18:59;;;;;;;4.78;1.88;;;15.60;99.90;;;;;;4986228;28;20033;-78
2023/06/27 02:21:25;;;;;;;4.65;1.58;;;15.70;99.90;;;;;;4988799;28;20046;-78
2023/06/27 02:23:51;;;;;;;3.55;1.10;;;15.70;99.90;;;;;;4987860;28;20030;-77
2023/06/27 02:26:17;;;;;;;3.55;1.27;;;15.60;99.90;;;;;;4998488;28;20038;-77
2023/06/27 02:28:43;;;;;;;2.50;1.20;;;15.70;99.90;;;;;;4983006;28;20141;-80
2023/06/27 02:31:10;;;;;;;2.45;0.90;;;15.70;99.90;;;;;;4987752;28;20080;-77
2023/06/27 02:33:36;;;;;;;2.88;0.75;;;15.70;99.90;;;;;;4989828;28;20463;-78
2023/06/27 02:36:02;;;;;;;2.70;0.90;;;15.70;99.90;;;;;;4990348;28;20518;-79
2023/06/27 02:38:28;;;;;;;3.83;0.88;;;15.60;99.90;;;;;;5006185;28;20379;-78
2023/06/27 02:40:54;;;;;;;2.17;0.50;;;15.60;99.90;;;;;;5006342;28;20085;-77
2023/06/27 02:43:20;;;;;;;4.78;1.00;;;15.70;99.90;;;;;;5003111;28;20105;-79
2023/06/27 02:45:47;;;;;;;2.92;0.68;;;15.70;99.90;;;;;;5005106;28;20069;-78
2023/06/27 02:48:13;;;;;;;3.25;0.80;;;15.70;99.90;;;;;;5005134;28;20479;-77
2023/06/27 02:50:38;;;;;;;1.85;0.63;;;15.70;99.90;;;;;;4987999;28;20511;-78
2023/06/27 02:53:04;;;;;;;4.85;0.80;;;15.70;99.90;;;;;;5016505;28;20487;-78
2023/06/27 02:55:30;;;;;;;2.13;0.50;;;15.70;99.90;;;;;;5016942;28;20808;-78
2023/06/27 02:57:57;;;;;;;3.30;0.50;;;15.70;99.90;;;;;;5017213;28;20028;-78
2023/06/27 03:00:24;;;;;;;3.92;1.23;;;15.70;99.90;;;;;;4984755;28;20475;-78
2023/06/27 03:02:50;;;;;;;2.42;0.60;;;15.60;99.90;;;;;;4989629;28;20080;-80
2023/06/27 03:05:16;;;;;;;1.80;0.43;;;15.60;99.90;;;;;;4988513;28;20043;-79
2023/06/27 03:07:42;;;;;;;1.88;0.60;;;15.50;99.90;;;;;;4989812;28;20080;-79
2023/06/27 03:10:09;;;;;;;3.15;0.60;;;15.50;99.90;;;;;;4987219;28;20030;-79
2023/06/27 03:12:35;;;;;;;1.92;0.50;;;15.40;99.90;;;;;;4969214;28;20467;-78
2023/06/27 03:15:03;;;;;;;2.95;0.93;;;15.40;99.90;;;;;;4984549;28;20568;-78
2023/06/27 03:17:32;;;;;;;3.42;0.60;;;15.40;99.90;;;;;;5004779;28;20490;-78
2023/06/27 03:19:58;;;;;;;3.10;0.55;;;15.30;99.90;;;;;;5014507;28;20057;-79
2023/06/27 03:22:25;;;;;;;4.15;0.90;;;15.30;99.90;;;;;;4970767;28;20035;-78
2023/06/27 03:24:52;;;;;;;3.45;0.85;;;15.20;99.90;;;;;;5003730;28;20399;-78
2023/06/27 03:27:23;;;;;;;3.78;0.70;;;15.20;99.90;;;;;;4967258;28;20035;-77
2023/06/27 03:29:50;;;;;;;4.07;0.80;;;15.20;99.90;;;;;;4994997;28;20030;-78
2023/06/27 03:32:16;;;;;;;5.50;0.75;;;15.20;99.90;;;;;;4986605;28;20027;-78
2023/06/27 03:34:42;;;;;;;4.72;0.90;;;15.10;99.90;;;;;;4980854;28;20030;-77
2023/06/27 03:37:09;;;;;;;4.43;0.77;;;15.10;99.90;;;;;;5000753;28;20030;-77
2023/06/27 03:39:35;;;;;;;3.17;0.68;;;15.10;99.90;;;;;;5001932;28;20026;-77
2023/06/27 03:42:02;;;;;;;4.25;0.70;;;15.20;99.90;;;;;;4986062;28;20089;-75
2023/06/27 03:44:28;;;;;;;2.50;0.95;;;15.20;99.90;;;;;;5000194;28;20055;-77
2023/06/27 03:46:54;;;;;;;2.65;0.70;;;15.10;99.90;;;;;;4985460;28;20033;-79
2023/06/27 03:49:21;;;;;;;3.60;0.90;;;15.10;99.90;;;;;;4986960;28;20034;-77
2023/06/27 03:51:47;;;;;;;5.43;0.90;;;15.10;99.90;;;;;;4988487;28;20030;-78
2023/06/27 03:54:12;;;;;;;5.53;0.90;;;15.10;99.90;;;;;;5001091;28;20027;-79
2023/06/27 03:56:38;;;;;;;4.60;0.80;;;15.10;99.90;;;;;;4988226;28;20030;-80
2023/06/27 03:59:04;;;;;;;2.30;0.80;;;15.20;99.90;;;;;;4986027;28;20062;-80
2023/06/27 04:01:30;;;;;;;3.25;0.80;;;15.20;99.90;;;;;;5014146;28;20463;-80
2023/06/27 04:03:56;;;;;;;2.10;0.73;;;15.20;99.90;;;;;;5016241;28;20037;-79
2023/06/27 04:06:22;;;;;;;3.53;0.52;;;15.30;99.90;;;;;;5017474;28;20041;-79
2023/06/27 04:08:49;;;;;;;1.10;0.50;;;15.40;99.90;;;;;;4972051;28;20026;-80
2023/06/27 04:11:14;;;;;;;2.50;0.60;;;15.50;99.90;;;;;;5001286;28;20064;-81
2023/06/27 04:13:40;;;;;;;3.95;0.80;;;15.60;99.90;;;;;;4983283;28;20105;-79
2023/06/27 04:16:06;;;;;;;1.48;0.70;;;15.60;99.90;;;;;;4984756;28;20033;-80
2023/06/27 04:18:32;;;;;;;2.00;0.85;;;15.70;99.90;;;;;;4982999;28;20097;-82
2023/06/27 04:20:58;;;;;;;1.55;0.43;;;15.80;99.90;;;;;;5003290;28;20066;-79
2023/06/27 04:23:24;;;;;;;2.13;0.50;;;15.90;99.90;;;;;;5019127;28;20022;-81
2023/06/27 04:26:04;;;;;;;2.63;0.50;;;16.00;99.90;;;;;;4983723;28;20111;-82
2023/06/27 04:28:31;;;;;;;;;;;16.10;99.90;;;;;;4982667;28;20034;-81
2023/06/27 04:30:58;;;;;;;4.22;1.00;;;16.20;99.90;;;;;;4988674;28;19956;-80
2023/06/27 04:33:23;;;;;;;4.50;1.50;;;16.10;99.90;;;;;;4981222;28;20033;-79
2023/06/27 04:35:49;;;;;;;3.58;1.20;;;16.10;99.90;;;;;;4987699;28;20027;-81
2023/06/27 04:38:15;;;;;;;5.13;0.70;;;16.10;99.90;;;;;;4983622;28;20022;-78
2023/06/27 04:40:43;;;;;;;2.80;0.90;;;16.30;99.90;;;;;;4997375;28;20431;-79
2023/06/27 04:43:10;;;;;;;4.93;0.80;;;16.30;99.90;;;;;;4981531;28;20042;-80
2023/06/27 04:45:36;;;;;;;2.63;0.90;;;16.50;99.90;;;;;;4964601;28;20390;-77
2023/06/27 04:48:04;;;;;;;2.38;0.60;;;16.60;99.90;;;;;;5001155;28;20042;-77
2023/06/27 04:50:30;;;;;;;3.20;0.77;;;16.70;99.90;;;;;;4985056;28;20032;-79
2023/06/27 04:52:55;;;;;;;4.20;0.88;;;16.80;99.90;;;;;;4981862;28;20376;-80
2023/06/27 04:55:21;;;;;;;6.45;1.38;;;16.80;99.90;;;;;;4992594;28;20031;-77
2023/06/27 04:57:47;;;;;;;8.20;1.98;;;16.70;99.90;;;;;;4979752;28;20161;-78
2023/06/27 05:00:13;;;;;;;6.30;1.40;;;16.60;99.90;;;;;;5002187;28;20122;-78
2023/06/27 05:02:39;;;;;;;8.45;2.30;;;16.50;99.90;;;;;;4996286;28;20023;-78
2023/06/27 05:05:07;;;;;;;6.80;1.88;;;16.40;99.90;;;;;;4971006;28;20398;-79
2023/06/27 05:07:34;;;;;;;4.28;1.73;;;16.30;99.90;;;;;;4984275;28;20141;-79
2023/06/27 05:10:00;;;;;;;6.90;1.52;;;16.30;99.90;;;;;;4998192;28;20109;-79
2023/06/27 05:12:26;;;;;;;8.77;1.95;;;16.30;99.90;;;;;;4996306;28;20053;-77
2023/06/27 05:14:51;;;;;;;7.20;2.20;;;16.40;99.90;;;;;;4984325;28;20026;-79
2023/06/27 05:17:17;;;;;;;9.68;2.35;;;16.40;99.90;;;;;;4966415;28;20037;-78
2023/06/27 05:19:43;;;;;;;6.07;2.13;;;16.40;99.90;;;;;;4986577;28;20074;-77
2023/06/27 05:22:09;;;;;;;5.13;1.25;;;16.40;99.90;;;;;;4986868;28;20050;-78
2023/06/27 05:24:34;;;;;;;7.75;2.10;;;16.50;99.90;;;;;;5020127;28;20078;-78
2023/06/27 05:27:00;;;;;;;5.97;2.25;;;16.40;99.90;;;;;;5016861;28;20498;-79
2023/06/27 05:29:26;;;;;;;8.05;1.90;;;16.30;99.90;;;;;;4988395;28;20117;-78
2023/06/27 05:31:51;;;;;;;7.03;3.05;;;16.40;99.90;;;;;;4998273;28;20034;-79
2023/06/27 05:34:17;;;;;;;7.45;2.05;;;16.40;99.90;;;;;;5018231;28;20034;-80
2023/06/27 05:36:43;;;;;;;9.02;2.20;;;16.40;99.90;;;;;;4990445;28;20105;-79
2023/06/27 05:39:08;;;;;;;6.55;1.58;;;16.50;99.90;;;;;;4987110;28;20471;-77
2023/06/27 05:41:34;;;;;;;3.50;1.48;;;16.50;99.90;;;;;;4983735;28;20049;-78
2023/06/27 05:44:00;;;;;;;4.28;1.20;;;16.60;99.90;;;;;;5006150;28;20037;-78
2023/06/27 05:46:25;;;;;;;8.05;1.15;;;16.80;99.90;;;;;;4988614;28;20129;-79
2023/06/27 05:48:52;;;;;;;9.25;2.03;;;16.70;99.90;;;;;;4975636;28;20045;-79
2023/06/27 05:51:18;;;;;;;8.57;2.40;;;16.70;99.90;;;;;;4983251;28;20030;-77
2023/06/27 05:53:44;;;;;;;8.57;1.92;;;16.90;99.90;;;;;;4983467;28;20052;-77
2023/06/27 05:56:09;;;;;;;8.82;3.03;;;17.10;99.90;;;;;;5018504;28;20037;-78
2023/06/27 05:58:36;;;;;;;9.15;3.08;;;17.10;99.90;;;;;;4952801;28;21468;-78
2023/06/27 06:01:01;;;;;;;11.60;3.08;;;17.10;99.90;;;;;;5011852;28;20044;-79
2023/06/27 06:03:27;;;;;;;12.68;3.05;;;17.10;99.90;;;;;;4998107;28;20030;-78
2023/06/27 06:05:53;;;;;;;3.95;2.03;;;17.10;99.90;;;;;;4996022;28;20137;-78
2023/06/27 06:08:19;;;;;;;3.17;1.15;;;17.40;99.90;;;;;;5003688;28;20036;-80
2023/06/27 06:10:50;;;;;;;5.80;1.70;;;17.40;99.90;;;;;;5032642;28;20118;-79
2023/06/27 06:13:16;;;;;;;5.93;1.52;;;17.30;99.90;;;;;;5014354;28;20030;-78
2023/06/27 06:15:41;;;;;;;7.65;1.65;;;17.40;99.90;;;;;;5024024;28;20556;-79
2023/06/27 06:18:07;;;;;;;5.32;1.10;;;17.60;99.90;;;;;;5001330;28;20356;-78
2023/06/27 06:20:33;;;;;;;5.85;2.10;;;17.80;99.90;;;;;;5034707;28;20063;-80
2023/06/27 06:22:59;;;;;;;9.25;3.58;;;17.50;99.90;;;;;;5033696;28;20030;-79
2023/06/27 06:25:28;;;;;;;8.43;2.08;;;17.60;99.90;;;;;;4987544;28;20030;-79
2023/06/27 06:27:54;;;;;;;9.88;2.95;;;17.60;99.90;;;;;;4997613;28;20023;-78
2023/06/27 06:30:19;;;;;;;12.45;3.22;;;17.60;99.90;;;;;;5003348;28;20109;-79
2023/06/27 06:32:46;;;;;;;6.38;1.63;;;17.40;99.90;;;;;;5007601;28;20084;-78
2023/06/27 06:35:11;;;;;;;9.00;2.47;;;17.60;99.90;;;;;;5006019;28;20113;-78
2023/06/27 06:37:37;;;;;;;9.65;3.03;;;17.90;99.90;;;;;;5002461;28;20108;-79
2023/06/27 06:40:03;;;;;;;9.02;3.33;;;18.10;99.90;;;;;;5003074;28;20478;-79
2023/06/27 06:42:29;;;;;;;8.60;3.08;;;18.30;99.90;;;;;;5019707;28;20065;-79
2023/06/27 06:44:55;;;;;;;10.00;2.78;;;18.20;99.90;;;;;;5034776;28;20192;-78
2023/06/27 06:47:21;;;;;;;11.20;2.38;;;18.50;99.90;;;;;;5019158;28;20026;-80
2023/06/27 06:49:46;;;;;;;10.52;2.25;;;18.40;99.90;;;;;;5001783;28;20422;-82
2023/06/27 06:52:12;;;;;;;8.27;1.88;;;18.60;99.90;;;;;;5019199;28;20030;-82
2023/06/27 06:54:38;;;;;;;6.80;2.13;;;18.50;99.90;;;;;;4985710;28;20495;-80
2023/06/27 06:57:06;;;;;;;8.95;2.67;;;18.70;99.90;;;;;;5001786;28;20018;-80
2023/06/27 06:59:32;;;;;;;6.25;1.80;;;18.80;99.90;;;;;;4996312;28;20041;-81
2023/06/27 07:01:57;;;;;;;7.78;1.92;;;19.00;99.90;;;;;;5018324;28;20504;-80
2023/06/27 07:04:23;;;;;;;10.18;1.88;;;19.30;99.90;;;;;;5032858;28;20092;-81
2023/06/27 07:06:49;;;;;;;5.82;1.38;;;19.30;99.90;;;;;;4996662;28;20030;-82
2023/06/27 07:09:15;;;;;;;7.38;1.40;;;19.60;99.90;;;;;;5019150;28;20083;-81
2023/06/27 07:11:41;;;;;;;5.22;1.15;;;19.70;99.90;;;;;;5019604;28;20486;-80
2023/06/27 07:14:07;;;;;;;4.78;1.40;;;19.70;99.90;;;;;;5003267;28;20022;-79
2023/06/27 07:16:32;;;;;;;5.35;0.90;;;19.90;99.90;;;;;;5032302;28;20080;-81
2023/06/27 07:18:58;;;;;;;5.43;1.00;;;19.90;99.90;;;;;;5018026;28;20030;-80
2023/06/27 07:21:24;;;;;;;6.80;1.50;;;19.90;99.90;;;;;;4998560;28;20123;-80
2023/06/27 07:23:50;;;;;;;8.35;1.40;;;20.00;99.90;;;;;;4997075;28;20026;-81
2023/06/27 07:26:15;;;;;;;5.60;1.45;;;20.10;99.90;;;;;;5011725;28;20073;-81
2023/06/27 07:28:41;;;;;;;3.40;0.80;;;20.10;99.90;;;;;;5003366;28;20034;-81
2023/06/27 07:31:07;;;;;;;3.67;0.93;;;20.40;99.90;;;;;;5035077;28;20026;-82
2023/06/27 07:33:32;;;;;;;7.88;1.30;;;20.50;99.90;;;;;;4987652;28;20025;-81
2023/06/27 07:35:58;;;;;;;3.97;0.73;;;20.50;99.90;;;;;;4997705;28;20148;-81
2023/06/27 07:38:24;;;;;;;7.90;1.02;;;20.50;99.90;;;;;;5018445;28;20413;-80
2023/06/27 07:40:49;;;;;;;4.85;0.80;;;20.70;99.90;;;;;;5015530;28;20030;-82
2023/06/27 07:43:15;;;;;;;4.32;0.95;;;21.00;99.90;;;;;;5000804;28;20435;-82
2023/06/27 07:45:41;;;;;;;5.47;0.70;;;21.00;99.90;;;;;;4987867;28;20513;-80
2023/06/27 07:48:06;;;;;;;6.50;0.60;;;21.00;99.90;;;;;;5019147;28;20117;-80
2023/06/27 07:50:32;;;;;;;5.75;0.70;;;20.80;99.90;;;;;;4987859;28;20034;-82
2023/06/27 07:52:58;;;;;;;3.83;0.70;;;21.00;99.90;;;;;;5019751;28;20098;-81
2023/06/27 07:55:24;;;;;;;3.95;0.40;;;21.10;99.90;;;;;;4982602;28;20041;-81
2023/06/27 07:57:49;;;;;;;5.50;0.90;;;21.80;99.90;;;;;;4998357;28;20025;-82
2023/06/27 08:00:16;;;;;;;6.55;0.80;;;21.40;99.90;;;;;;5034832;28;20048;-83
2023/06/27 08:02:41;;;;;;;4.15;0.70;;;20.90;99.90;;;;;;5000997;28;20046;-82
2023/06/27 08:05:08;;;;;;;5.43;0.60;;;20.80;99.90;;;;;;5002416;28;20249;-82
2023/06/27 08:07:33;;;;;;;4.38;0.60;;;20.50;99.90;;;;;;4998936;28;20384;-81
2023/06/27 08:09:59;;;;;;;3.60;0.43;;;20.70;99.90;;;;;;5019028;28;20095;-80
2023/06/27 08:12:25;;;;;;;5.65;0.60;;;20.70;99.90;;;;;;5017345;28;20022;-79
2023/06/27 08:14:51;;;;;;;4.22;0.60;;;21.10;99.90;;;;;;4982206;28;20035;-80
2023/06/27 08:17:22;;;;;;;4.00;0.60;;;20.90;99.90;;;;;;4997466;28;20037;-82
2023/06/27 08:19:48;;;;;;;4.32;0.60;;;20.90;99.90;;;;;;4997091;28;20065;-82
2023/06/27 08:22:14;;;;;;;4.18;0.60;;;21.00;99.90;;;;;;5003325;28;20045;-82
2023/06/27 08:24:40;;;;;;;4.47;0.60;;;21.00;99.90;;;;;;4997193;28;20593;-82
2023/06/27 08:27:06;;;;;;;5.97;0.40;;;21.00;99.90;;;;;;4982651;28;20117;-82
2023/06/27 08:29:33;;;;;;;4.32;0.40;;;21.20;99.90;;;;;;5001666;28;20463;-81
2023/06/27 08:31:59;;;;;;;2.45;0.30;;;21.40;99.90;;;;;;4995801;28;20034;-84
2023/06/27 08:34:31;;;;;;;3.95;0.30;;;21.10;99.90;;;;;;4983484;28;20120;-83
2023/06/27 08:36:59;;;;;;;4.38;0.50;;;21.40;99.90;;;;;;4985281;28;20044;-83
2023/06/27 08:39:26;;;;;;;2.33;0.30;;;21.10;99.90;;;;;;4998098;28;20281;-82
2023/06/27 08:41:52;;;;;;;2.97;0.30;;;21.20;99.90;;;;;;5012871;28;20501;-82
2023/06/27 08:44:17;;;;;;;6.38;0.60;;;21.40;99.90;;;;;;5003627;28;20042;-82
2023/06/27 08:46:47;;;;;;;3.17;0.35;;;21.30;99.90;;;;;;4995943;28;20117;-83
2023/06/27 08:49:20;;;;;;;3.85;0.40;;;21.50;99.90;;;;;;4984732;28;20030;-83
2023/06/27 08:51:54;;;;;;;2.65;0.30;;;21.80;99.90;;;;;;5018847;28;20053;-83
2023/06/27 08:54:32;;;;;;;1.25;0.22;;;21.50;99.90;;;;;;5018069;28;20037;-81
2023/06/27 08:57:00;;;;;;;2.47;0.30;;;21.50;99.90;;;;;;5021530;28;20499;-82
2023/06/27 08:59:29;;;;;;;3.60;0.30;;;21.60;99.90;;;;;;5021965;28;20041;-82
2023/06/27 09:01:57;;;;;;;2.72;0.30;;;21.40;99.90;;;;;;4998831;28;20049;-82
2023/06/27 09:04:23;;;;;;;2.40;0.20;;;21.50;99.90;;;;;;5002108;28;20049;-81
2023/06/27 09:06:49;;;;;;;3.42;0.30;;;21.50;99.90;;;;;;5006299;28;20026;-82
2023/06/27 09:09:15;;;;;;;4.35;0.30;;;21.40;99.90;;;;;;5003042;28;20030;-83
2023/06/27 09:11:43;;;;;;;3.97;0.28;;;21.30;99.90;;;;;;4987563;28;20037;-82
2023/06/27 09:14:09;;;;;;;4.18;0.40;;;21.50;99.90;;;;;;5004670;28;20608;-82
2023/06/27 09:16:35;;;;;;;2.67;0.28;;;21.30;99.90;;;;;;4990430;28;20124;-82
2023/06/27 09:19:00;;;;;;;2.53;0.20;;;21.20;99.90;;;;;;4989826;28;20478;-80
2023/06/27 09:21:31;;;;;;;3.33;0.40;;;21.40;99.90;;;;;;4981942;28;20390;-81
2023/06/27 09:23:57;;;;;;;1.77;0.30;;;21.60;99.90;;;;;;5002596;28;20475;-80
2023/06/27 09:26:27;;;;;;;2.60;0.20;;;22.00;99.90;;;;;;4988713;28;20156;-81
2023/06/27 09:28:52;;;;;;;;;;;22.20;99.90;;;;;;4986569;28;20022;-80
2023/06/27 09:31:20;;;;;;;6.18;0.40;;;22.30;99.90;;;;;;5021568;28;19939;-81
2023/06/27 09:33:48;;;;;;;2.13;0.30;;;22.00;99.90;;;;;;5004922;28;20113;-81
2023/06/27 09:36:33;;;;;;;1.00;0.20;;;21.80;99.90;;;;;;5001255;28;20097;-80
2023/06/27 09:39:07;;;;;;;3.75;0.40;;;21.60;99.90;;;;;;5022342;28;20029;-82
2023/06/27 09:41:49;;;;;;;2.58;0.30;;;21.50;99.90;;;;;;5021792;28;20022;-80
2023/06/27 09:44:19;;;;;;;4.32;0.40;;;21.10;99.90;;;;;;5019739;28;20384;-82
2023/06/27 09:46:46;;;;;;;2.20;0.30;;;21.00;99.90;;;;;;4999534;28;20486;-81
2023/06/27 09:49:12;;;;;;;3.33;0.32;;;20.80;99.90;;;;;;5036026;28;20759;-80
2023/06/27 09:51:38;;;;;;;2.72;0.30;;;20.70;99.90;;;;;;5001659;28;20379;-80
2023/06/27 09:54:05;;;;;;;2.38;0.20;;;20.70;99.90;;;;;;4989128;28;20117;-81
2023/06/27 09:56:34;;;;;;;2.22;0.20;;;20.40;99.90;;;;;;4999890;28;20030;-81
2023/06/27 09:59:11;;;;;;;1.90;0.20;;;20.30;99.90;;;;;;5003011;28;20507;-79
2023/06/27 10:01:39;;;;;;;3.10;0.20;;;20.30;99.90;;;;;;5021392;28;20080;-81
2023/06/27 10:04:06;;;;;;;1.15;0.20;;;20.40;99.90;;;;;;5034366;28;20092;-82
2023/06/27 10:06:33;;;;;;;1.45;0.20;;;20.30;99.90;;;;;;5020283;28;20041;-82
2023/06/27 10:08:59;;;;;;;1.55;0.22;;;20.40;99.90;;;;;;5002812;28;20113;-81
2023/06/27 10:11:26;;;;;;;1.58;0.22;;;20.60;99.90;;;;;;5002072;28;20195;-81
2023/06/27 10:13:52;;;;;;;2.85;0.20;;;20.80;99.90;;;;;;5002361;28;20029;-82
2023/06/27 10:16:18;;;;;;;2.40;0.40;;;21.00;99.90;;;;;;4997787;28;20026;-82
2023/06/27 10:18:44;;;;;;;1.52;0.17;;;21.10;99.90;;;;;;5000301;28;20027;-82
2023/06/27 10:21:11;;;;;;;1.83;0.20;;;21.10;99.90;;;;;;5021173;28;20058;-81
2023/06/27 10:23:41;;;;;;;1.98;0.35;;;21.10;99.90;;;;;;4989279;28;20053;-82
2023/06/27 10:26:08;;;;;;;;;;;21.20;99.90;;;;;;5037476;28;20050;-82
2023/06/27 10:28:34;;;;;;;2.55;0.30;;;21.00;99.90;;;;;;4988969;28;20309;-81
2023/06/27 10:31:00;;;;;;;1.38;0.10;;;21.00;99.90;;;;;;5004657;28;20105;-82
2023/06/27 10:33:31;;;;;;;2.22;0.30;;;20.80;99.90;;;;;;5037370;28;20367;-82
2023/06/27 10:36:01;;;;;;;3.03;0.30;;;20.90;99.90;;;;;;5000312;28;20030;-82
2023/06/27 10:38:47;;;;;;;3.70;0.40;;;20.70;99.90;;;;;;5001971;28;20580;-83
2023/06/27 10:41:24;;;;;;;2.03;0.20;;;20.70;99.90;;;;;;5003775;28;20038;-82
2023/06/27 10:43:51;;;;;;;2.60;0.20;;;21.10;99.90;;;;;;4999756;28;20033;-82
2023/06/27 10:46:29;;;;;;;1.63;0.20;;;21.50;99.90;;;;;;5000110;28;20042;-82
2023/06/27 10:49:10;;;;;;;2.47;0.30;;;21.10;99.90;;;;;;5018045;28;20109;-81
2023/06/27 10:51:42;;;;;;;1.08;0.20;;;21.30;99.90;;;;;;4983083;28;20559;-81
2023/06/27 10:54:08;;;;;;;2.05;0.22;;;21.90;99.90;;;;;;5037746;28;20038;-84
2023/06/27 10:56:37;;;;;;;2.50;0.20;;;22.40;99.90;;;;;;4981077;28;20022;-81
2023/06/27 10:59:04;;;;;;;2.10;0.13;;;22.10;99.90;;;;;;4997923;28;20034;-82
2023/06/27 11:01:31;;;;;;;1.65;0.20;;;23.00;99.90;;;;;;5002634;28;20026;-82
2023/06/27 11:03:57;;;;;;;1.05;0.20;;;22.70;99.90;;;;;;4987904;28;20184;-83
2023/06/27 11:06:40;;;;;;;1.50;0.20;;;22.10;99.90;;;;;;4998643;28;20037;-84
2023/06/27 11:09:08;;;;;;;2.10;0.20;;;22.30;99.90;;;;;;5021174;28;20033;-82
2023/06/27 11:11:34;;;;;;;2.35;0.20;;;22.00;99.90;;;;;;4979947;28;20027;-80
2023/06/27 11:14:10;;;;;;;1.67;0.20;;;21.70;99.90;;;;;;5005069;28;20044;-81
2023/06/27 11:16:36;;;;;;;1.58;0.20;;;21.40;99.90;;;;;;4995484;28;20029;-81
2023/06/27 11:19:03;;;;;;;3.10;0.30;;;21.80;99.90;;;;;;5034373;28;20033;-79
2023/06/27 11:21:29;;;;;;;3.35;0.20;;;22.40;99.90;;;;;;4998445;28;20085;-81
2023/06/27 11:23:58;;;;;;;2.65;0.20;;;22.50;99.90;;;;;;4999933;28;20030;-80
2023/06/27 11:26:26;;;;;;;2.10;0.30;;;22.30;99.90;;;;;;5017891;28;20108;-82
2023/06/27 11:28:51;;;;;;;2.65;0.25;;;22.10;99.90;;;;;;5014727;28;20109;-81
2023/06/27 11:31:17;;;;;;;2.38;0.30;;;22.00;99.90;;;;;;4987008;28;20136;-82
2023/06/27 11:33:43;;;;;;;1.17;0.20;;;21.60;99.90;;;;;;5000095;28;20041;-81
2023/06/27 11:36:10;;;;;;;1.88;0.20;;;21.50;99.90;;;;;;5016705;28;20041;-81
2023/06/27 11:38:36;;;;;;;2.40;0.20;;;21.70;99.90;;;;;;4998483;28;20021;-80
2023/06/27 11:41:02;;;;;;;1.17;0.20;;;22.10;99.90;;;;;;5001681;28;20033;-81
2023/06/27 11:43:28;;;;;;;1.80;0.20;;;22.60;99.90;;;;;;5018372;28;20036;-81
2023/06/27 11:45:58;;;;;;;1.77;0.20;;;22.20;99.90;;;;;;5034572;28;20037;-81
2023/06/27 11:48:24;;;;;;;3.72;0.20;;;22.10;99.90;;;;;;4982377;28;20026;-81
2023/06/27 11:51:06;;;;;;;2.35;0.20;;;22.30;99.90;;;;;;4996563;28;20152;-82
2023/06/27 11:53:33;;;;;;;1.77;0.28;;;22.20;99.90;;;;;;4996992;28;20112;-82
2023/06/27 11:56:00;;;;;;;1.08;0.10;;;22.10;99.90;;;;;;4986892;28;20021;-82
2023/06/27 11:58:33;;;;;;;3.30;0.20;;;21.90;99.90;;;;;;5017723;28;20088;-82
2023/06/27 12:01:00;;;;;;;2.83;0.20;;;21.90;99.90;;;;;;4997939;28;20034;-83
2023/06/27 12:03:30;;;;;;;1.08;0.10;;;22.60;99.90;;;;;;4998821;28;20022;-81
2023/06/27 12:05:57;;;;;;;1.75;0.20;;;22.50;99.90;;;;;;4997683;28;20047;-81
2023/06/27 12:08:32;;;;;;;1.60;0.13;;;22.80;99.90;;;;;;5000440;28;20119;-82
2023/06/27 12:11:03;;;;;;;2.30;0.20;;;23.10;99.90;;;;;;5016338;28;20049;-81
2023/06/27 12:13:41;;;;;;;1.05;0.10;;;23.00;99.90;;;;;;4998877;28;20041;-82
2023/06/27 12:16:21;;;;;;;1.52;0.20;;;23.00;99.90;;;;;;4982859;28;20038;-81
2023/06/27 12:18:46;;;;;;;1.75;0.20;;;22.90;99.90;;;;;;5001764;28;20030;-82
2023/06/27 12:21:12;;;;;;;2.22;0.13;;;23.50;99.90;;;;;;4995318;28;20045;-82
2023/06/27 12:23:38;;;;;;;4.30;0.20;;;23.20;99.90;;;;;;4998594;28;20030;-81
2023/06/27 12:26:03;;;;;;;1.95;0.10;;;23.20;99.90;;;;;;4997831;28;20038;-81
2023/06/27 12:28:31;;;;;;;1.35;0.15;;;22.80;99.90;;;;;;5017214;28;20049;-81
2023/06/27 12:30:57;;;;;;;1.20;0.10;;;22.80;99.90;;;;;;5014541;28;20026;-81
2023/06/27 12:33:24;;;;;;;0.80;0.10;;;22.60;99.90;;;;;;4994882;28;20096;-80
2023/06/27 12:35:50;;;;;;;0.80;0.10;;;22.20;99.90;;;;;;4999253;28;20026;-82
2023/06/27 12:38:16;;;;;;;1.75;0.20;;;22.30;99.90;;;;;;5002576;28;20146;-81
2023/06/27 12:40:41;;;;;;;1.90;0.20;;;22.40;99.90;;;;;;4981692;28;20101;-81
2023/06/27 12:43:07;;;;;;;1.92;0.20;;;22.60;99.90;;;;;;4999391;28;20022;-82
2023/06/27 12:45:33;;;;;;;2.53;0.30;;;22.70;99.90;;;;;;4986087;28;20394;-82
2023/06/27 12:47:59;;;;;;;0.80;0.10;;;22.30;99.90;;;;;;4985654;28;20120;-82
2023/06/27 12:50:24;;;;;;;1.05;0.20;;;22.40;99.90;;;;;;5001633;28;20045;-81